Terminal Aerodrome Forecast
Issued by NWS

Home | Current Version | Previous Version | Text Only | Print | Product List | Glossary Off
Versions: 1 2 3 4 5 6 7 8 9 10 11 12 13 14 15 16 17 18 19 20 21 22 23 24 25

000
FTUS43 KBIS 062327
TAFDIK
TAF
KDIK 062327Z 0700/0724 30024G31KT 3SM BLSN OVC035
      TEMPO 0700/0704 1SM BLSN OVC025
     FM070500 30022G30KT P6SM BKN040
     FM071000 30020KT P6SM BKN025=

USA.gov is the U.S. government's official web portal to all federal, state and local government web resources and services.